createdAt,value
2022-12-01T00:01:02.900Z,37.28
2022-12-01T00:03:32.844Z,36.65
2022-12-01T00:06:01.407Z,35.65
2022-12-01T00:08:28.956Z,36.92
2022-12-01T00:11:03.910Z,36.17
2022-12-01T00:13:30.467Z,40.25
2022-12-01T00:15:56.920Z,35.70
2022-12-01T00:18:23.308Z,35.92
2022-12-01T00:20:55.851Z,35.58
2022-12-01T00:23:23.239Z,37.58
2022-12-01T00:25:49.649Z,36.58
2022-12-01T00:28:16.058Z,34.42
2022-12-01T00:30:42.537Z,38.13
2022-12-01T00:33:08.926Z,33.20
2022-12-01T00:35:35.304Z,35.67
2022-12-01T00:38:01.725Z,35.38
2022-12-01T00:40:28.127Z,36.08
2022-12-01T00:42:54.560Z,37.15
2022-12-01T00:45:21.040Z,35.90
2022-12-01T00:47:47.440Z,33.97
2022-12-01T00:50:13.874Z,38.00
2022-12-01T00:52:40.987Z,39.28
2022-12-01T00:55:07.675Z,36.20
2022-12-01T00:57:34.043Z,31.35
2022-12-01T01:00:00.509Z,36.63
2022-12-01T01:02:27.063Z,35.15
2022-12-01T01:04:53.625Z,34.58
2022-12-01T01:07:20.390Z,38.95
2022-12-01T01:09:47.161Z,34.90
2022-12-01T01:12:13.797Z,32.97
2022-12-01T01:14:40.242Z,34.15
2022-12-01T01:17:06.749Z,32.35
2022-12-01T01:19:33.478Z,34.47
2022-12-01T01:21:59.873Z,32.63
2022-12-01T01:24:26.326Z,31.05
2022-12-01T01:26:53.464Z,36.15
2022-12-01T01:29:19.870Z,32.50
2022-12-01T01:31:46.286Z,35.05
2022-12-01T01:34:12.749Z,33.72
2022-12-01T01:36:39.179Z,33.28
2022-12-01T01:39:05.661Z,35.72
2022-12-01T01:41:33.063Z,35.50
2022-12-01T01:44:04.154Z,37.78
2022-12-01T01:46:32.849Z,38.00
2022-12-01T01:49:13.741Z,29.10
2022-12-01T01:51:43.620Z,34.50
2022-12-01T01:54:21.915Z,33.60
2022-12-01T01:56:50.066Z,32.65
2022-12-01T01:59:27.166Z,38.35
2022-12-01T02:02:02.226Z,36.45
2022-12-01T02:06:55.521Z,35.78
2022-12-01T02:09:21.907Z,38.95
2022-12-01T02:12:22.313Z,40.83
2022-12-01T02:15:04.872Z,38.25
2022-12-01T02:17:41.934Z,38.33
2022-12-01T02:20:08.464Z,37.75
2022-12-01T02:22:59.587Z,40.22
2022-12-01T02:25:50.863Z,35.63
2022-12-01T02:28:26.280Z,41.97
2022-12-01T02:31:08.685Z,36.20
2022-12-01T02:33:42.727Z,35.65
2022-12-01T02:36:17.812Z,38.10
2022-12-01T02:41:33.277Z,35.08
2022-12-01T02:44:08.834Z,38.38
2022-12-01T02:47:02.531Z,40.95
2022-12-01T02:49:35.267Z,40.38
2022-12-01T02:52:04.737Z,34.80
2022-12-01T02:54:32.884Z,40.42
2022-12-01T02:56:59.552Z,39.00
2022-12-01T02:59:26.314Z,44.60
2022-12-01T03:02:32.188Z,44.42
2022-12-01T03:05:18.627Z,35.15
2022-12-01T03:08:06.089Z,34.35
2022-12-01T03:11:05.410Z,37.65
2022-12-01T03:14:10.854Z,37.28
2022-12-01T03:16:54.327Z,40.00
2022-12-01T03:19:26.971Z,30.95
2022-12-01T03:22:09.825Z,41.78
2022-12-01T03:24:38.302Z,42.33
2022-12-01T03:27:06.140Z,38.15
2022-12-01T03:29:36.608Z,36.85
2022-12-01T03:32:28.203Z,36.28
2022-12-01T03:34:58.756Z,36.15
2022-12-01T03:37:32.218Z,38.67
2022-12-01T03:40:01.274Z,35.15
2022-12-01T03:45:03.760Z,37.40
2022-12-01T03:47:32.454Z,38.22
2022-12-01T03:50:00.319Z,38.05
2022-12-01T03:52:40.978Z,34.13
2022-12-01T03:55:26.392Z,38.20
2022-12-01T03:58:06.350Z,38.00
2022-12-01T04:00:33.397Z,32.90
2022-12-01T04:03:03.732Z,39.20
2022-12-01T04:05:32.475Z,39.88
2022-12-01T04:07:59.575Z,35.13
2022-12-01T04:10:26.236Z,37.47
2022-12-01T04:12:58.885Z,42.70
2022-12-01T04:15:26.497Z,40.38
2022-12-01T04:17:53.098Z,37.15
2022-12-01T04:20:19.604Z,36.97
2022-12-01T04:22:46.038Z,42.30
2022-12-01T04:25:12.576Z,36.97
2022-12-01T04:27:39.295Z,36.78
2022-12-01T04:30:07.289Z,42.22
2022-12-01T04:32:38.738Z,40.13
2022-12-01T04:35:06.461Z,38.53
2022-12-01T04:37:33.331Z,37.15
2022-12-01T04:39:59.813Z,46.40
2022-12-01T04:42:26.299Z,37.88
2022-12-01T04:44:52.742Z,45.15
2022-12-01T04:47:19.188Z,41.83
2022-12-01T04:49:45.624Z,39.25
2022-12-01T04:52:12.056Z,42.30
2022-12-01T04:54:42.362Z,38.10
2022-12-01T04:57:08.880Z,40.97
2022-12-01T04:59:35.336Z,42.50
2022-12-01T05:02:03.927Z,40.15
2022-12-01T05:04:31.426Z,37.65
2022-12-01T05:06:57.919Z,41.35
2022-12-01T05:09:24.510Z,41.75
2022-12-01T05:11:50.955Z,42.05
2022-12-01T05:14:17.335Z,40.88
2022-12-01T05:16:43.852Z,38.67
2022-12-01T05:19:28.791Z,41.60
2022-12-01T05:21:55.230Z,36.60
2022-12-01T05:24:22.181Z,43.40
2022-12-01T05:26:48.900Z,34.75
2022-12-01T05:29:15.362Z,46.17
2022-12-01T05:31:41.978Z,45.15
2022-12-01T05:34:08.723Z,42.42
2022-12-01T05:36:35.405Z,40.88
2022-12-01T05:39:02.008Z,42.03
2022-12-01T05:41:28.559Z,41.58
2022-12-01T05:43:55.092Z,41.00
2022-12-01T05:46:21.543Z,40.75
2022-12-01T05:48:48.196Z,39.50
2022-12-01T05:51:16.659Z,42.53
2022-12-01T05:53:43.250Z,38.50
2022-12-01T05:56:09.838Z,41.75
2022-12-01T05:58:36.924Z,44.50
2022-12-01T06:01:04.166Z,43.42
2022-12-01T06:03:30.618Z,41.85
2022-12-01T06:05:57.180Z,44.95
2022-12-01T06:08:23.627Z,46.92
2022-12-01T06:10:50.416Z,38.83
2022-12-01T06:13:16.976Z,42.45
2022-12-01T06:15:43.474Z,35.67
2022-12-01T06:18:09.923Z,39.25
2022-12-01T06:20:36.350Z,43.17
2022-12-01T06:23:03.071Z,41.78
2022-12-01T06:25:29.477Z,36.75
2022-12-01T06:27:57.442Z,38.78
2022-12-01T06:30:24.646Z,42.55
2022-12-01T06:32:51.104Z,40.90
2022-12-01T06:35:17.524Z,46.35
2022-12-01T06:37:44.086Z,43.83
2022-12-01T06:40:11.318Z,42.20
2022-12-01T06:42:37.752Z,48.38
2022-12-01T06:45:04.606Z,41.95
2022-12-01T06:47:31.082Z,41.20
2022-12-01T06:49:57.566Z,44.95
2022-12-01T06:52:24.055Z,40.78
2022-12-01T06:54:50.623Z,39.35
2022-12-01T06:57:17.289Z,50.95
2022-12-01T06:59:44.196Z,41.58
2022-12-01T07:02:11.739Z,48.92
2022-12-01T07:04:38.252Z,42.67
2022-12-01T07:07:06.323Z,47.63
2022-12-01T07:09:32.873Z,40.75
2022-12-01T07:11:59.397Z,45.90
2022-12-01T07:14:27.058Z,46.97
2022-12-01T07:16:53.662Z,46.03
2022-12-01T07:19:20.541Z,44.47
2022-12-01T07:21:47.346Z,44.35
2022-12-01T07:24:13.963Z,43.63
2022-12-01T07:26:41.367Z,52.78
2022-12-01T07:29:11.741Z,49.13
2022-12-01T07:31:38.945Z,46.67
2022-12-01T07:34:06.078Z,51.72
2022-12-01T07:36:32.578Z,52.00
2022-12-01T07:38:59.054Z,52.80
2022-12-01T07:41:25.580Z,45.85
2022-12-01T07:43:52.083Z,61.40
2022-12-01T07:46:23.665Z,52.17
2022-12-01T07:48:51.490Z,49.60
2022-12-01T07:51:18.196Z,53.08
2022-12-01T07:53:46.381Z,55.28
2022-12-01T07:56:13.113Z,58.17
2022-12-01T07:58:40.130Z,50.40
2022-12-01T08:01:12.433Z,47.80
2022-12-01T08:03:39.649Z,49.75
2022-12-01T08:06:07.407Z,47.83
2022-12-01T08:08:36.130Z,55.03
2022-12-01T08:11:05.782Z,46.17
2022-12-01T08:13:32.442Z,52.97
2022-12-01T08:15:59.100Z,45.42
2022-12-01T08:18:25.924Z,57.05
2022-12-01T08:20:57.598Z,57.97
2022-12-01T08:23:24.268Z,46.83
2022-12-01T08:25:52.483Z,49.67
2022-12-01T08:28:19.684Z,56.10
2022-12-01T08:30:47.339Z,49.42
2022-12-01T08:33:13.975Z,51.95
2022-12-01T08:35:40.415Z,57.63
2022-12-01T08:38:06.997Z,53.45
2022-12-01T08:40:33.608Z,44.17
2022-12-01T08:43:00.160Z,55.67
2022-12-01T08:45:26.788Z,52.45
2022-12-01T08:47:58.731Z,56.70
2022-12-01T08:50:28.369Z,60.10
2022-12-01T08:52:54.911Z,49.55
2022-12-01T08:55:21.893Z,56.20
2022-12-01T08:57:48.348Z,47.72
2022-12-01T09:00:15.738Z,50.53
2022-12-01T09:02:42.396Z,47.55
2022-12-01T09:05:11.625Z,45.13
2022-12-01T09:10:22.355Z,44.60
2022-12-01T09:13:13.024Z,50.97
2022-12-01T09:15:39.549Z,45.45
2022-12-01T09:18:07.048Z,56.42
2022-12-01T09:20:33.886Z,51.75
2022-12-01T09:23:18.174Z,47.72
2022-12-01T09:25:45.187Z,46.03
2022-12-01T09:28:11.985Z,50.70
2022-12-01T09:33:07.528Z,49.20
2022-12-01T09:35:34.032Z,52.72
2022-12-01T09:38:00.544Z,52.45
2022-12-01T09:40:42.795Z,54.38
2022-12-01T09:43:20.464Z,49.28
2022-12-01T09:45:51.406Z,45.83
2022-12-01T09:48:29.190Z,49.58
2022-12-01T09:50:56.047Z,54.72
2022-12-01T09:53:25.504Z,49.67
2022-12-01T09:55:52.881Z,48.33
2022-12-01T09:58:24.606Z,49.13
2022-12-01T10:00:53.226Z,46.08
2022-12-01T10:03:32.861Z,45.42
2022-12-01T10:06:26.586Z,45.55
2022-12-01T10:09:10.272Z,46.10
2022-12-01T10:11:44.646Z,46.50
2022-12-01T10:14:20.160Z,46.28
2022-12-01T10:17:21.655Z,46.20
2022-12-01T10:20:05.350Z,47.22
2022-12-01T10:22:58.088Z,44.83
2022-12-01T10:25:33.041Z,49.60
2022-12-01T10:28:21.378Z,48.03
2022-12-01T10:30:53.176Z,50.03
2022-12-01T10:33:25.959Z,48.22
2022-12-01T10:35:53.616Z,54.67
2022-12-01T10:38:29.671Z,45.72
2022-12-01T10:40:59.845Z,48.53
2022-12-01T10:43:37.012Z,51.00
2022-12-01T10:46:18.382Z,44.63
2022-12-01T10:49:12.859Z,50.92
2022-12-01T10:51:59.855Z,51.33
2022-12-01T10:54:34.229Z,44.88
2022-12-01T10:57:01.494Z,50.90
2022-12-01T10:59:51.247Z,51.22
2022-12-01T11:02:22.693Z,51.58
2022-12-01T11:05:01.907Z,53.95
2022-12-01T11:07:32.476Z,48.55
2022-12-01T11:10:16.151Z,47.33
2022-12-01T11:12:45.165Z,46.63
2022-12-01T11:15:24.364Z,46.50
2022-12-01T11:18:00.373Z,49.92
2022-12-01T11:23:26.696Z,49.47
2022-12-01T11:26:17.619Z,47.40
2022-12-01T11:28:56.135Z,42.00
2022-12-01T11:31:27.777Z,46.03
2022-12-01T11:33:56.195Z,47.53
2022-12-01T11:36:38.675Z,42.20
2022-12-01T11:39:05.132Z,37.55
2022-12-01T11:41:37.591Z,43.05
2022-12-01T11:44:12.731Z,47.03
2022-12-01T11:46:55.803Z,44.72
2022-12-01T11:49:29.936Z,50.75
2022-12-01T11:51:56.436Z,44.85
2022-12-01T11:54:25.623Z,44.67
2022-12-01T11:57:25.556Z,43.50
2022-12-01T11:59:40.481Z,43.13
2022-12-01T12:02:34.946Z,51.30
2022-12-01T12:05:42.646Z,45.75
2022-12-01T12:08:18.770Z,42.85
2022-12-01T12:10:58.520Z,46.20
2022-12-01T12:13:45.246Z,47.55
2022-12-01T12:16:15.347Z,41.35
2022-12-01T12:18:48.002Z,42.25
2022-12-01T12:21:17.362Z,40.00
2022-12-01T12:23:54.195Z,44.53
2022-12-01T12:26:25.179Z,42.47
2022-12-01T12:29:19.926Z,43.03
2022-12-01T12:32:12.092Z,40.85
2022-12-01T12:35:03.340Z,34.25
2022-12-01T12:37:47.390Z,34.67
2022-12-01T12:40:41.841Z,39.60
2022-12-01T12:43:20.243Z,32.10
2022-12-01T12:46:02.111Z,37.45
2022-12-01T12:49:11.685Z,34.63
2022-12-01T12:51:42.961Z,40.28
2022-12-01T12:54:18.132Z,36.55
2022-12-01T12:56:52.785Z,37.20
2022-12-01T12:59:24.962Z,35.47
2022-12-01T13:02:18.658Z,35.20
2022-12-01T13:05:12.625Z,37.22
2022-12-01T13:07:48.133Z,39.47
2022-12-01T13:10:26.629Z,31.63
2022-12-01T13:12:59.243Z,42.17
2022-12-01T13:15:27.233Z,33.90
2022-12-01T13:17:59.792Z,39.55
2022-12-01T13:20:29.766Z,41.75
2022-12-01T13:22:59.374Z,34.85
2022-12-01T13:25:47.721Z,42.22
2022-12-01T13:28:20.273Z,37.63
2022-12-01T13:31:09.818Z,40.58
2022-12-01T13:33:38.755Z,40.72
2022-12-01T13:36:45.272Z,36.53
2022-12-01T13:39:22.465Z,39.85
2022-12-01T13:41:57.943Z,35.72
2022-12-01T13:44:43.291Z,35.42
2022-12-01T13:47:09.703Z,38.88
2022-12-01T13:49:47.983Z,36.45
2022-12-01T13:52:23.588Z,35.75
2022-12-01T13:55:16.483Z,36.42
2022-12-01T13:58:14.333Z,34.35
2022-12-01T14:03:12.590Z,37.78
2022-12-01T14:05:41.998Z,36.03
2022-12-01T14:08:27.232Z,31.77
2022-12-01T14:11:19.912Z,41.55
2022-12-01T14:13:59.626Z,35.20
2022-12-01T14:16:46.636Z,39.25
2022-12-01T14:19:47.554Z,38.72
2022-12-01T14:22:35.326Z,38.53
2022-12-01T14:25:07.554Z,38.10
2022-12-01T14:27:37.348Z,32.13
2022-12-01T14:30:41.435Z,38.40
2022-12-01T14:33:38.659Z,36.70
2022-12-01T14:36:24.138Z,36.10
2022-12-01T14:38:59.564Z,32.75
2022-12-01T14:41:41.112Z,33.33
2022-12-01T14:44:33.446Z,39.63
2022-12-01T14:47:12.188Z,38.55
2022-12-01T14:50:00.317Z,37.30
2022-12-01T14:52:27.832Z,39.10
2022-12-01T14:54:58.929Z,44.17
2022-12-01T14:57:32.623Z,36.88
2022-12-01T15:00:23.754Z,34.47
2022-12-01T15:02:59.193Z,31.13
2022-12-01T15:05:28.451Z,37.95
2022-12-01T15:08:18.674Z,35.55
2022-12-01T15:10:55.572Z,34.65
2022-12-01T15:13:30.622Z,35.35
2022-12-01T15:18:29.333Z,38.08
2022-12-01T15:21:01.152Z,40.67
2022-12-01T15:23:27.657Z,41.45
2022-12-01T15:25:55.188Z,35.72
2022-12-01T15:28:32.042Z,33.53
2022-12-01T15:31:00.297Z,35.90
2022-12-01T15:33:28.380Z,34.63
2022-12-01T15:35:58.780Z,38.15
2022-12-01T15:38:30.441Z,36.80
2022-12-01T15:41:27.794Z,32.45
2022-12-01T15:43:56.780Z,33.78
2022-12-01T15:46:31.509Z,33.50
2022-12-01T15:49:09.562Z,35.35
2022-12-01T15:51:36.276Z,33.40
2022-12-01T15:54:03.603Z,37.55
2022-12-01T15:56:34.080Z,33.38
2022-12-01T15:59:28.774Z,38.45
2022-12-01T16:01:56.780Z,32.70
2022-12-01T16:04:32.334Z,34.55
2022-12-01T16:07:08.081Z,37.17
2022-12-01T16:09:37.366Z,33.00
2022-12-01T16:14:31.973Z,37.72
2022-12-01T16:16:59.867Z,37.35
2022-12-01T16:19:33.921Z,37.15
2022-12-01T16:22:11.342Z,38.72
2022-12-01T16:24:46.589Z,34.92
2022-12-01T16:29:48.364Z,37.42
2022-12-01T16:34:52.963Z,35.55
2022-12-01T16:37:22.054Z,36.17
2022-12-01T16:39:49.282Z,37.28
2022-12-01T16:42:18.748Z,36.17
2022-12-01T16:44:50.912Z,41.28
2022-12-01T16:47:20.528Z,35.90
2022-12-01T16:49:47.579Z,32.67
2022-12-01T16:55:03.692Z,35.55
2022-12-01T16:57:30.195Z,33.47
2022-12-01T16:59:56.663Z,31.70
2022-12-01T17:02:23.125Z,36.75
2022-12-01T17:04:49.796Z,34.30
2022-12-01T17:07:16.371Z,34.17
2022-12-01T17:09:42.796Z,37.00
2022-12-01T17:12:10.067Z,39.28
2022-12-01T17:14:36.870Z,42.10
2022-12-01T17:17:03.675Z,32.95
2022-12-01T17:19:30.151Z,39.10
2022-12-01T17:21:56.883Z,37.22
2022-12-01T17:24:23.477Z,36.35
2022-12-01T17:26:49.935Z,31.77
2022-12-01T17:29:16.344Z,33.83
2022-12-01T17:31:42.809Z,31.05
2022-12-01T17:34:09.310Z,33.20
2022-12-01T17:36:35.748Z,34.55
2022-12-01T17:39:02.380Z,35.53
2022-12-01T17:41:32.478Z,31.48
2022-12-01T17:44:02.349Z,32.90
2022-12-01T17:46:30.119Z,39.03
2022-12-01T17:48:56.775Z,30.60
2022-12-01T17:51:23.364Z,34.70
2022-12-01T17:53:49.875Z,33.65
2022-12-01T17:56:17.439Z,33.83
2022-12-01T17:58:44.198Z,37.88
2022-12-01T18:01:16.093Z,40.25
2022-12-01T18:03:43.484Z,35.85
2022-12-01T18:06:11.163Z,34.13
2022-12-01T18:08:38.278Z,34.85
2022-12-01T18:11:12.869Z,33.03
2022-12-01T18:13:44.482Z,36.08
2022-12-01T18:16:16.696Z,33.15
2022-12-01T18:18:43.383Z,37.58
2022-12-01T18:21:12.749Z,40.63
2022-12-01T18:26:13.733Z,39.63
2022-12-01T18:28:42.055Z,42.20
2022-12-01T18:31:11.659Z,36.45
2022-12-01T18:33:43.105Z,36.30
2022-12-01T18:36:12.944Z,33.92
2022-12-01T18:38:40.059Z,34.63
2022-12-01T18:41:07.045Z,38.55
2022-12-01T18:43:33.659Z,36.55
2022-12-01T18:46:00.512Z,40.63
2022-12-01T18:48:27.017Z,39.70
2022-12-01T18:50:59.115Z,39.90
2022-12-01T18:53:25.890Z,35.15
2022-12-01T18:55:52.314Z,42.53
2022-12-01T18:58:18.768Z,44.30
2022-12-01T19:00:45.410Z,38.15
2022-12-01T19:03:11.939Z,43.95
2022-12-01T19:05:39.268Z,39.80
2022-12-01T19:08:06.648Z,42.88
2022-12-01T19:10:33.300Z,44.17
2022-12-01T19:12:59.769Z,40.15
2022-12-01T19:15:26.199Z,42.22
2022-12-01T19:17:52.713Z,33.70
2022-12-01T19:20:19.123Z,43.45
2022-12-01T19:22:47.197Z,38.97
2022-12-01T19:25:13.830Z,39.25
2022-12-01T19:27:40.557Z,40.88
2022-12-01T19:30:07.784Z,32.78
2022-12-01T19:32:34.547Z,46.45
2022-12-01T19:35:01.089Z,43.30
2022-12-01T19:37:29.436Z,43.65
2022-12-01T19:39:55.841Z,42.92
2022-12-01T19:42:22.267Z,41.72
2022-12-01T19:44:49.157Z,44.33
2022-12-01T19:47:21.736Z,39.30
2022-12-01T19:49:51.994Z,41.28
2022-12-01T19:52:18.394Z,40.17
2022-12-01T19:54:44.893Z,45.88
2022-12-01T19:57:11.343Z,41.67
2022-12-01T19:59:37.715Z,43.95
2022-12-01T20:02:06.475Z,40.13
2022-12-01T20:04:33.272Z,41.50
2022-12-01T20:06:59.725Z,42.15
2022-12-01T20:09:26.790Z,40.38
2022-12-01T20:11:53.630Z,42.38
2022-12-01T20:14:20.070Z,46.40
2022-12-01T20:16:46.519Z,48.15
2022-12-01T20:19:13.052Z,46.97
2022-12-01T20:22:04.810Z,44.60
2022-12-01T20:24:31.187Z,41.65
2022-12-01T20:26:57.764Z,43.72
2022-12-01T20:29:27.739Z,37.78
2022-12-01T20:31:56.606Z,45.38
2022-12-01T20:34:28.850Z,41.03
2022-12-01T20:36:56.226Z,41.10
2022-12-01T20:39:23.755Z,41.47
2022-12-01T20:41:56.466Z,47.28
2022-12-01T20:44:22.980Z,45.58
2022-12-01T20:46:49.490Z,47.58
2022-12-01T20:49:17.465Z,43.25
2022-12-01T20:51:44.470Z,43.42
2022-12-01T20:54:30.015Z,46.47
2022-12-01T20:56:57.543Z,45.17
2022-12-01T20:59:24.406Z,45.97
2022-12-01T21:01:51.373Z,40.85
2022-12-01T21:04:17.856Z,42.42
2022-12-01T21:06:44.436Z,47.85
2022-12-01T21:09:12.344Z,41.10
2022-12-01T21:12:17.533Z,45.17
2022-12-01T21:15:02.434Z,43.15
2022-12-01T21:17:33.648Z,46.42
2022-12-01T21:20:08.814Z,43.08
2022-12-01T21:22:36.317Z,41.15
2022-12-01T21:25:12.160Z,41.30
2022-12-01T21:27:38.641Z,40.92
2022-12-01T21:30:14.459Z,41.88
2022-12-01T21:32:44.112Z,45.85
2022-12-01T21:35:25.017Z,40.13
2022-12-01T21:37:58.983Z,46.58
2022-12-01T21:40:28.418Z,41.47
2022-12-01T21:42:58.558Z,46.42
2022-12-01T21:45:31.966Z,45.72
2022-12-01T21:48:06.299Z,41.78
2022-12-01T21:50:32.708Z,38.95
2022-12-01T21:52:59.118Z,40.42
2022-12-01T21:55:25.950Z,36.00
2022-12-01T21:57:53.833Z,42.60
2022-12-01T22:00:29.530Z,35.80
2022-12-01T22:03:08.152Z,44.80
2022-12-01T22:05:39.090Z,42.67
2022-12-01T22:08:22.011Z,40.70
2022-12-01T22:10:58.676Z,43.90
2022-12-01T22:13:48.106Z,43.63
2022-12-01T22:16:36.169Z,40.92
2022-12-01T22:19:22.911Z,43.88
2022-12-01T22:22:09.358Z,45.80
2022-12-01T22:24:51.565Z,40.50
2022-12-01T22:27:34.547Z,43.95
2022-12-01T22:30:05.652Z,44.55
2022-12-01T22:32:33.826Z,45.65
2022-12-01T22:35:17.792Z,43.22
2022-12-01T22:37:47.324Z,43.42
2022-12-01T22:40:37.425Z,52.17
2022-12-01T22:43:15.982Z,42.90
2022-12-01T22:45:50.187Z,47.53
2022-12-01T22:48:40.677Z,50.30
2022-12-01T22:51:13.231Z,44.03
2022-12-01T22:53:41.444Z,46.63
2022-12-01T22:56:49.756Z,48.45
2022-12-01T22:59:20.696Z,43.60
2022-12-01T23:01:54.756Z,55.00
2022-12-01T23:04:21.289Z,42.15
2022-12-01T23:06:52.308Z,47.10
2022-12-01T23:09:23.860Z,52.35
2022-12-01T23:11:58.899Z,49.88
2022-12-01T23:14:25.904Z,49.00
2022-12-01T23:16:57.388Z,52.47
2022-12-01T23:19:25.265Z,48.33
2022-12-01T23:21:52.582Z,50.65
2022-12-01T23:24:19.026Z,49.17
2022-12-01T23:26:46.883Z,56.10
2022-12-01T23:29:13.343Z,55.50
2022-12-01T23:31:39.868Z,49.83
2022-12-01T23:34:13.504Z,56.20
2022-12-01T23:36:39.949Z,58.65
2022-12-01T23:39:12.229Z,58.95
2022-12-01T23:41:47.216Z,56.85
2022-12-01T23:44:39.782Z,55.70
2022-12-01T23:47:21.197Z,54.72
2022-12-01T23:49:51.331Z,56.58
2022-12-01T23:52:20.964Z,57.38
2022-12-01T23:54:48.075Z,56.58
2022-12-01T23:57:23.097Z,56.78
2022-12-01T23:59:54.770Z,52.88
